Página principal
METAR-TAF:

METAR-TAF

Aeroportos :

Copenhaga, Dinamarca

Aeroporto de Copenhaga

latitude: 55-37N, longitude: 012-39E, altura: 5 m

Observação actual do tempo

O boletim foi feito há 13 minutos, às 19:50 UTC
Vento 9 kt de oeste
Temperatura 1°C
Humidade 80%
Pressão 1004 hPa
Visibilidade 10 km ou mais
Poucas nuvensa uma altura de 3800 ft
Nuvens fragmentadasa uma altura de 6200 ft

METAR: EKCH 121950Z 26009KT 9999 FEW038 BKN062 01/M02 Q1004 R04L/710163 R04R/710170 R12/2///95 NOSIG

Hora: 21:03 (20:03 UTC)

Previsão

O boletim foi feito há 3 horas e 2 minutos, às 17:01 UTC
Previsão válida de 12 às 18 UTC a 13 às 18 UTC
Vento 10 kt de oeste
Visibilidade 10 km ou mais
Nuvens dispersasa uma altura de 2000 ft
Tornando-se
de 13 às 00 UTC a 13 às 03 UTC
Vento 20 kt de su-sudoeste com rajadas de 32 kt
Temporariamente
de 13 às 12 UTC a 13 às 18 UTC
Nuvens fragmentadasa uma altura de 1200 ft
chuva

TAF: EKCH 121701Z 1218/1318 26010KT 9999 SCT020 BECMG 1300/1303 21020G32KT TEMPO 1312/1318 RA BKN012

Observações e previsões do tempo de mais de 4000 aeroportos (mensagens METAR e TAF).

As estações disponíveis são os pontos amarelos e vermelhos sobre o mapa.

Mova o rato sobre o mapa para ver o nome da estação.

Depois clique no ponto para visualizar as observações e previsões meteorológicas.

Para alterar o mapa : clique nos botões verdes com uma cruz preta para aumentar o zoom; no botão verde com uma pitada de zoom; ou nas setas verdes para mapas adjacentes.


METAR-TAF: